sensor_id;sensor_type;location;lat;lon;timestamp;noise_LAeq;noise_LA_min;noise_LA_max;noise_LA01;noise_LA95
68599;Laerm;18038;50.166;18.908;2024-02-21T00:03:06;32.38;31.64;35.34;;
68599;Laerm;18038;50.166;18.908;2024-02-21T00:06:15;32.16;31.56;34.01;;
68599;Laerm;18038;50.166;18.908;2024-02-21T00:09:22;33.89;31.64;44.38;;
68599;Laerm;18038;50.166;18.908;2024-02-21T00:12:30;32.71;31.49;41.33;;
68599;Laerm;18038;50.166;18.908;2024-02-21T00:15:40;33.68;31.49;46.53;;
68599;Laerm;18038;50.166;18.908;2024-02-21T00:18:48;32.11;31.43;33.72;;
68599;Laerm;18038;50.166;18.908;2024-02-21T00:21:55;32.21;31.61;34.19;;
68599;Laerm;18038;50.166;18.908;2024-02-21T00:25:04;32.61;31.63;38.90;;
68599;Laerm;18038;50.166;18.908;2024-02-21T00:28:12;33.20;31.61;43.58;;
68599;Laerm;18038;50.166;18.908;2024-02-21T00:31:23;32.21;31.55;33.93;;
68599;Laerm;18038;50.166;18.908;2024-02-21T00:34:30;32.13;31.53;34.48;;
68599;Laerm;18038;50.166;18.908;2024-02-21T00:37:38;32.52;31.83;36.04;;
68599;Laerm;18038;50.166;18.908;2024-02-21T00:40:46;34.30;31.76;49.34;;
68599;Laerm;18038;50.166;18.908;2024-02-21T00:43:54;35.42;31.53;46.33;;
68599;Laerm;18038;50.166;18.908;2024-02-21T00:47:04;32.23;31.56;35.02;;
68599;Laerm;18038;50.166;18.908;2024-02-21T00:50:13;33.27;31.70;43.75;;
68599;Laerm;18038;50.166;18.908;2024-02-21T00:53:20;32.22;31.63;33.45;;
68599;Laerm;18038;50.166;18.908;2024-02-21T00:56:28;34.67;31.57;47.53;;
68599;Laerm;18038;50.166;18.908;2024-02-21T00:59:37;32.26;31.61;36.15;;
68599;Laerm;18038;50.166;18.908;2024-02-21T01:02:49;32.08;31.53;33.15;;
68599;Laerm;18038;50.166;18.908;2024-02-21T01:05:57;32.86;31.51;42.52;;
68599;Laerm;18038;50.166;18.908;2024-02-21T01:09:05;32.20;31.60;34.79;;
68599;Laerm;18038;50.166;18.908;2024-02-21T01:12:12;32.12;31.41;35.56;;
68599;Laerm;18038;50.166;18.908;2024-02-21T01:15:20;32.41;31.55;42.79;;
68599;Laerm;18038;50.166;18.908;2024-02-21T01:18:30;32.68;31.50;43.24;;
68599;Laerm;18038;50.166;18.908;2024-02-21T01:21:38;35.34;31.71;49.32;;
68599;Laerm;18038;50.166;18.908;2024-02-21T01:24:46;36.87;31.84;50.04;;
68599;Laerm;18038;50.166;18.908;2024-02-21T01:27:54;32.46;31.58;34.86;;
68599;Laerm;18038;50.166;18.908;2024-02-21T01:31:01;32.37;31.53;39.24;;
68599;Laerm;18038;50.166;18.908;2024-02-21T01:34:12;32.14;31.53;36.14;;
68599;Laerm;18038;50.166;18.908;2024-02-21T01:37:19;34.41;31.59;45.81;;
68599;Laerm;18038;50.166;18.908;2024-02-21T01:40:28;32.16;31.54;35.11;;
68599;Laerm;18038;50.166;18.908;2024-02-21T01:43:35;34.10;31.71;46.94;;
68599;Laerm;18038;50.166;18.908;2024-02-21T01:46:44;34.54;31.59;49.38;;
68599;Laerm;18038;50.166;18.908;2024-02-21T01:49:54;33.81;31.62;47.12;;
68599;Laerm;18038;50.166;18.908;2024-02-21T01:53:02;34.33;31.57;47.18;;
68599;Laerm;18038;50.166;18.908;2024-02-21T01:56:12;33.08;31.69;47.52;;
68599;Laerm;18038;50.166;18.908;2024-02-21T01:59:22;32.62;31.72;39.00;;
68599;Laerm;18038;50.166;18.908;2024-02-21T02:02:30;34.12;31.64;46.57;;
68599;Laerm;18038;50.166;18.908;2024-02-21T02:05:40;33.50;31.65;44.02;;
68599;Laerm;18038;50.166;18.908;2024-02-21T02:08:48;32.90;31.64;45.88;;
68599;Laerm;18038;50.166;18.908;2024-02-21T02:11:56;34.30;31.70;47.34;;
68599;Laerm;18038;50.166;18.908;2024-02-21T02:15:05;32.37;31.57;36.59;;
68599;Laerm;18038;50.166;18.908;2024-02-21T02:18:15;32.28;31.53;35.72;;
68599;Laerm;18038;50.166;18.908;2024-02-21T02:21:32;33.28;31.57;45.79;;
68599;Laerm;18038;50.166;18.908;2024-02-21T02:24:44;34.29;31.97;44.98;;
68599;Laerm;18038;50.166;18.908;2024-02-21T02:27:51;35.54;31.85;47.20;;
68599;Laerm;18038;50.166;18.908;2024-02-21T02:30:59;32.69;31.76;39.46;;
68599;Laerm;18038;50.166;18.908;2024-02-21T02:34:07;33.05;31.64;43.79;;
68599;Laerm;18038;50.166;18.908;2024-02-21T02:37:15;32.36;31.47;38.29;;
68599;Laerm;18038;50.166;18.908;2024-02-21T02:40:25;34.34;31.56;49.06;;
68599;Laerm;18038;50.166;18.908;2024-02-21T02:43:33;33.65;31.64;44.96;;
68599;Laerm;18038;50.166;18.908;2024-02-21T02:46:41;35.90;31.53;50.59;;
68599;Laerm;18038;50.166;18.908;2024-02-21T02:49:49;36.22;31.71;50.37;;
68599;Laerm;18038;50.166;18.908;2024-02-21T02:52:58;33.22;31.60;44.47;;
68599;Laerm;18038;50.166;18.908;2024-02-21T02:56:14;34.96;31.48;46.15;;
68599;Laerm;18038;50.166;18.908;2024-02-21T02:59:22;34.01;31.48;46.32;;
68599;Laerm;18038;50.166;18.908;2024-02-21T03:02:29;32.25;31.47;37.66;;
68599;Laerm;18038;50.166;18.908;2024-02-21T03:05:37;34.00;31.58;47.71;;
68599;Laerm;18038;50.166;18.908;2024-02-21T03:08:45;32.23;31.51;35.11;;
68599;Laerm;18038;50.166;18.908;2024-02-21T03:11:56;34.30;31.48;42.89;;
68599;Laerm;18038;50.166;18.908;2024-02-21T03:15:08;33.62;31.66;45.46;;
68599;Laerm;18038;50.166;18.908;2024-02-21T03:18:16;33.72;31.63;44.62;;
68599;Laerm;18038;50.166;18.908;2024-02-21T03:21:23;33.04;31.69;41.54;;
68599;Laerm;18038;50.166;18.908;2024-02-21T03:24:31;37.16;31.75;47.36;;
68599;Laerm;18038;50.166;18.908;2024-02-21T03:27:41;34.55;31.74;46.58;;
68599;Laerm;18038;50.166;18.908;2024-02-21T03:30:49;38.52;31.89;48.54;;
68599;Laerm;18038;50.166;18.908;2024-02-21T03:33:57;34.41;31.73;46.12;;
68599;Laerm;18038;50.166;18.908;2024-02-21T03:37:05;35.46;31.72;45.44;;
68599;Laerm;18038;50.166;18.908;2024-02-21T03:40:12;35.30;31.77;47.94;;
68599;Laerm;18038;50.166;18.908;2024-02-21T03:43:23;35.73;31.78;49.17;;
68599;Laerm;18038;50.166;18.908;2024-02-21T03:46:31;38.10;31.76;48.01;;
68599;Laerm;18038;50.166;18.908;2024-02-21T03:49:39;36.82;31.97;48.85;;
68599;Laerm;18038;50.166;18.908;2024-02-21T03:52:47;32.95;31.79;41.98;;
68599;Laerm;18038;50.166;18.908;2024-02-21T03:55:56;36.00;31.76;47.95;;
68599;Laerm;18038;50.166;18.908;2024-02-21T03:59:09;36.04;31.89;47.49;;
68599;Laerm;18038;50.166;18.908;2024-02-21T04:02:18;35.70;31.83;46.87;;
68599;Laerm;18038;50.166;18.908;2024-02-21T04:05:25;36.81;32.00;48.47;;
68599;Laerm;18038;50.166;18.908;2024-02-21T04:08:33;39.61;33.06;55.32;;
68599;Laerm;18038;50.166;18.908;2024-02-21T04:11:41;39.03;32.34;48.52;;
68599;Laerm;18038;50.166;18.908;2024-02-21T04:14:52;38.53;32.27;48.23;;
68599;Laerm;18038;50.166;18.908;2024-02-21T04:17:59;39.00;32.44;49.35;;
68599;Laerm;18038;50.166;18.908;2024-02-21T04:21:08;38.63;32.57;47.47;;
68599;Laerm;18038;50.166;18.908;2024-02-21T04:24:19;40.29;32.91;47.76;;
68599;Laerm;18038;50.166;18.908;2024-02-21T04:27:27;39.81;32.71;49.38;;
68599;Laerm;18038;50.166;18.908;2024-02-21T04:30:37;39.89;32.92;49.25;;
68599;Laerm;18038;50.166;18.908;2024-02-21T04:33:45;40.08;32.81;51.19;;
68599;Laerm;18038;50.166;18.908;2024-02-21T04:36:52;40.29;32.77;49.82;;
68599;Laerm;18038;50.166;18.908;2024-02-21T04:40:01;40.08;33.43;47.23;;
68599;Laerm;18038;50.166;18.908;2024-02-21T04:43:08;40.03;33.18;49.08;;
68599;Laerm;18038;50.166;18.908;2024-02-21T04:46:19;39.48;33.01;47.14;;
68599;Laerm;18038;50.166;18.908;2024-02-21T04:49:26;39.73;33.01;48.35;;
68599;Laerm;18038;50.166;18.908;2024-02-21T04:52:35;41.92;33.36;53.25;;
68599;Laerm;18038;50.166;18.908;2024-02-21T04:55:42;40.66;33.09;48.21;;
68599;Laerm;18038;50.166;18.908;2024-02-21T04:58:50;40.75;33.80;47.99;;
68599;Laerm;18038;50.166;18.908;2024-02-21T05:02:00;38.70;33.02;48.44;;
68599;Laerm;18038;50.166;18.908;2024-02-21T05:05:08;39.23;32.73;48.24;;
68599;Laerm;18038;50.166;18.908;2024-02-21T05:08:16;38.55;32.88;51.02;;
68599;Laerm;18038;50.166;18.908;2024-02-21T05:11:24;40.24;32.99;55.20;;
68599;Laerm;18038;50.166;18.908;2024-02-21T05:14:32;40.69;33.24;48.92;;
68599;Laerm;18038;50.166;18.908;2024-02-21T05:17:42;40.46;33.29;48.47;;
68599;Laerm;18038;50.166;18.908;2024-02-21T05:20:50;40.11;33.20;48.44;;
68599;Laerm;18038;50.166;18.908;2024-02-21T05:23:58;41.99;35.29;47.60;;
68599;Laerm;18038;50.166;18.908;2024-02-21T05:27:07;42.68;33.43;61.56;;
68599;Laerm;18038;50.166;18.908;2024-02-21T05:30:15;39.82;33.52;48.28;;
68599;Laerm;18038;50.166;18.908;2024-02-21T05:33:25;40.05;32.78;48.67;;
68599;Laerm;18038;50.166;18.908;2024-02-21T05:36:33;42.87;33.25;51.45;;
68599;Laerm;18038;50.166;18.908;2024-02-21T05:39:40;41.63;33.44;48.51;;
68599;Laerm;18038;50.166;18.908;2024-02-21T05:42:48;42.15;34.47;49.83;;
68599;Laerm;18038;50.166;18.908;2024-02-21T05:45:56;41.99;33.62;57.65;;
68599;Laerm;18038;50.166;18.908;2024-02-21T05:49:07;43.15;34.24;50.35;;
68599;Laerm;18038;50.166;18.908;2024-02-21T05:52:14;41.66;33.59;52.64;;
68599;Laerm;18038;50.166;18.908;2024-02-21T05:55:23;42.04;35.78;48.43;;
68599;Laerm;18038;50.166;18.908;2024-02-21T05:58:30;42.13;35.58;48.32;;
68599;Laerm;18038;50.166;18.908;2024-02-21T06:01:39;43.21;35.06;59.51;;
68599;Laerm;18038;50.166;18.908;2024-02-21T06:04:49;40.98;34.11;50.73;;
68599;Laerm;18038;50.166;18.908;2024-02-21T06:07:57;42.33;34.19;49.91;;
68599;Laerm;18038;50.166;18.908;2024-02-21T06:11:04;41.79;34.37;51.55;;
68599;Laerm;18038;50.166;18.908;2024-02-21T06:14:13;41.46;34.78;49.44;;
68599;Laerm;18038;50.166;18.908;2024-02-21T06:17:20;42.07;34.07;52.41;;
68599;Laerm;18038;50.166;18.908;2024-02-21T06:20:31;42.47;34.48;50.84;;
68599;Laerm;18038;50.166;18.908;2024-02-21T06:23:40;41.69;34.19;47.59;;
68599;Laerm;18038;50.166;18.908;2024-02-21T06:26:48;42.60;34.25;50.18;;
68599;Laerm;18038;50.166;18.908;2024-02-21T06:29:55;43.09;33.70;62.12;;
68599;Laerm;18038;50.166;18.908;2024-02-21T06:33:04;43.10;34.79;54.03;;
68599;Laerm;18038;50.166;18.908;2024-02-21T06:36:14;42.05;33.98;49.29;;
68599;Laerm;18038;50.166;18.908;2024-02-21T06:39:23;42.60;34.62;48.86;;
68599;Laerm;18038;50.166;18.908;2024-02-21T06:42:30;42.39;34.88;48.17;;
68599;Laerm;18038;50.166;18.908;2024-02-21T06:45:41;42.89;35.45;50.93;;
68599;Laerm;18038;50.166;18.908;2024-02-21T06:48:51;42.62;35.23;51.06;;
68599;Laerm;18038;50.166;18.908;2024-02-21T06:52:05;43.22;36.01;52.95;;
68599;Laerm;18038;50.166;18.908;2024-02-21T06:55:12;43.07;35.60;52.22;;
68599;Laerm;18038;50.166;18.908;2024-02-21T06:58:21;46.10;35.33;68.70;;
68599;Laerm;18038;50.166;18.908;2024-02-21T07:01:29;43.94;36.26;50.17;;
68599;Laerm;18038;50.166;18.908;2024-02-21T07:04:37;43.04;34.55;52.78;;
68599;Laerm;18038;50.166;18.908;2024-02-21T07:07:47;43.53;36.53;49.26;;
68599;Laerm;18038;50.166;18.908;2024-02-21T07:10:55;41.86;35.34;48.10;;
68599;Laerm;18038;50.166;18.908;2024-02-21T07:14:03;42.13;34.15;59.75;;
68599;Laerm;18038;50.166;18.908;2024-02-21T07:17:11;43.15;35.48;54.59;;
68599;Laerm;18038;50.166;18.908;2024-02-21T07:20:18;46.25;33.54;66.01;;
68599;Laerm;18038;50.166;18.908;2024-02-21T07:23:29;42.17;35.00;49.95;;
68599;Laerm;18038;50.166;18.908;2024-02-21T07:26:36;42.54;34.58;51.11;;
68599;Laerm;18038;50.166;18.908;2024-02-21T07:29:44;42.74;35.69;50.54;;
68599;Laerm;18038;50.166;18.908;2024-02-21T07:32:53;41.67;35.26;48.41;;
68599;Laerm;18038;50.166;18.908;2024-02-21T07:36:06;43.27;35.12;55.58;;
68599;Laerm;18038;50.166;18.908;2024-02-21T07:39:15;42.26;34.00;54.52;;
68599;Laerm;18038;50.166;18.908;2024-02-21T07:42:24;40.94;33.68;51.20;;
68599;Laerm;18038;50.166;18.908;2024-02-21T07:45:31;42.65;34.28;52.72;;
68599;Laerm;18038;50.166;18.908;2024-02-21T07:48:39;41.74;34.61;50.18;;
68599;Laerm;18038;50.166;18.908;2024-02-21T07:51:46;41.96;34.49;54.73;;
68599;Laerm;18038;50.166;18.908;2024-02-21T07:54:57;41.82;33.92;49.56;;
68599;Laerm;18038;50.166;18.908;2024-02-21T07:58:04;41.18;33.96;52.86;;
68599;Laerm;18038;50.166;18.908;2024-02-21T08:01:18;41.50;33.86;54.51;;
68599;Laerm;18038;50.166;18.908;2024-02-21T08:04:26;40.40;33.93;51.32;;
68599;Laerm;18038;50.166;18.908;2024-02-21T08:07:34;42.70;34.50;54.65;;
68599;Laerm;18038;50.166;18.908;2024-02-21T08:10:44;40.98;34.12;52.50;;
68599;Laerm;18038;50.166;18.908;2024-02-21T08:13:53;39.51;34.02;57.58;;
68599;Laerm;18038;50.166;18.908;2024-02-21T08:17:00;39.98;34.05;56.46;;
68599;Laerm;18038;50.166;18.908;2024-02-21T08:20:10;41.29;34.45;55.22;;
68599;Laerm;18038;50.166;18.908;2024-02-21T08:23:19;39.64;33.81;53.28;;
68599;Laerm;18038;50.166;18.908;2024-02-21T08:26:29;39.69;33.97;51.04;;
68599;Laerm;18038;50.166;18.908;2024-02-21T08:29:37;40.32;33.46;55.12;;
68599;Laerm;18038;50.166;18.908;2024-02-21T08:32:45;38.26;33.29;48.09;;
68599;Laerm;18038;50.166;18.908;2024-02-21T08:35:52;40.82;33.60;52.14;;
68599;Laerm;18038;50.166;18.908;2024-02-21T08:39:02;39.31;34.02;52.71;;
68599;Laerm;18038;50.166;18.908;2024-02-21T08:42:12;40.43;34.23;51.27;;
68599;Laerm;18038;50.166;18.908;2024-02-21T08:45:21;40.03;34.47;50.15;;
68599;Laerm;18038;50.166;18.908;2024-02-21T08:48:28;40.56;33.95;55.22;;
68599;Laerm;18038;50.166;18.908;2024-02-21T08:51:36;42.29;34.23;53.71;;
68599;Laerm;18038;50.166;18.908;2024-02-21T08:54:43;45.06;34.37;67.33;;
68599;Laerm;18038;50.166;18.908;2024-02-21T08:57:54;39.72;34.12;50.71;;
68599;Laerm;18038;50.166;18.908;2024-02-21T09:01:01;40.51;33.46;57.55;;
68599;Laerm;18038;50.166;18.908;2024-02-21T09:04:10;39.05;32.94;56.46;;
68599;Laerm;18038;50.166;18.908;2024-02-21T09:07:17;38.90;33.00;53.85;;
68599;Laerm;18038;50.166;18.908;2024-02-21T09:10:26;39.49;32.68;51.31;;
68599;Laerm;18038;50.166;18.908;2024-02-21T09:13:36;36.93;32.55;46.59;;
68599;Laerm;18038;50.166;18.908;2024-02-21T09:16:44;43.13;32.08;59.33;;
68599;Laerm;18038;50.166;18.908;2024-02-21T09:19:51;39.11;32.08;59.73;;
68599;Laerm;18038;50.166;18.908;2024-02-21T09:23:01;37.74;32.34;45.47;;
68599;Laerm;18038;50.166;18.908;2024-02-21T09:26:08;38.69;32.27;48.62;;
68599;Laerm;18038;50.166;18.908;2024-02-21T09:29:21;42.11;32.17;57.59;;
68599;Laerm;18038;50.166;18.908;2024-02-21T09:32:31;41.31;32.42;53.40;;
68599;Laerm;18038;50.166;18.908;2024-02-21T09:35:39;40.12;32.53;57.83;;
68599;Laerm;18038;50.166;18.908;2024-02-21T09:38:46;46.17;32.36;64.63;;
68599;Laerm;18038;50.166;18.908;2024-02-21T09:42:05;42.46;32.31;61.88;;
68599;Laerm;18038;50.166;18.908;2024-02-21T09:45:21;41.98;32.12;61.74;;
68599;Laerm;18038;50.166;18.908;2024-02-21T09:48:51;40.01;32.25;57.92;;
68599;Laerm;18038;50.166;18.908;2024-02-21T09:52:05;41.19;32.58;55.49;;
68599;Laerm;18038;50.166;18.908;2024-02-21T09:55:16;38.14;32.57;47.33;;
68599;Laerm;18038;50.166;18.908;2024-02-21T09:58:26;38.87;32.94;47.71;;
68599;Laerm;18038;50.166;18.908;2024-02-21T10:01:38;39.90;33.31;52.29;;
68599;Laerm;18038;50.166;18.908;2024-02-21T10:04:45;38.49;32.55;49.61;;
68599;Laerm;18038;50.166;18.908;2024-02-21T10:07:55;39.32;32.88;46.41;;
68599;Laerm;18038;50.166;18.908;2024-02-21T10:11:03;40.49;32.82;49.47;;
68599;Laerm;18038;50.166;18.908;2024-02-21T10:14:15;40.01;33.06;49.08;;
68599;Laerm;18038;50.166;18.908;2024-02-21T10:17:25;38.56;32.83;54.00;;
68599;Laerm;18038;50.166;18.908;2024-02-21T10:20:33;44.06;33.04;64.70;;
68599;Laerm;18038;50.166;18.908;2024-02-21T10:23:44;40.90;33.26;56.88;;
68599;Laerm;18038;50.166;18.908;2024-02-21T10:27:01;42.78;33.29;56.64;;
68599;Laerm;18038;50.166;18.908;2024-02-21T10:30:14;39.30;32.86;52.68;;
68599;Laerm;18038;50.166;18.908;2024-02-21T10:33:26;45.72;33.15;62.52;;
68599;Laerm;18038;50.166;18.908;2024-02-21T10:36:36;44.23;33.35;62.85;;
68599;Laerm;18038;50.166;18.908;2024-02-21T10:39:44;41.39;33.22;54.62;;
68599;Laerm;18038;50.166;18.908;2024-02-21T10:42:57;42.17;32.57;61.73;;
68599;Laerm;18038;50.166;18.908;2024-02-21T10:46:07;44.24;33.51;58.65;;
68599;Laerm;18038;50.166;18.908;2024-02-21T10:49:24;40.44;33.45;50.27;;
68599;Laerm;18038;50.166;18.908;2024-02-21T10:52:50;40.63;32.49;53.55;;
68599;Laerm;18038;50.166;18.908;2024-02-21T10:56:14;40.27;33.41;51.38;;
68599;Laerm;18038;50.166;18.908;2024-02-21T10:59:27;42.75;32.99;58.00;;
68599;Laerm;18038;50.166;18.908;2024-02-21T11:02:37;42.24;33.86;55.15;;
68599;Laerm;18038;50.166;18.908;2024-02-21T11:05:50;41.47;33.01;50.33;;
68599;Laerm;18038;50.166;18.908;2024-02-21T11:09:03;44.03;32.59;59.73;;
68599;Laerm;18038;50.166;18.908;2024-02-21T11:12:11;40.17;33.64;54.26;;
68599;Laerm;18038;50.166;18.908;2024-02-21T11:15:27;40.27;33.61;51.72;;
68599;Laerm;18038;50.166;18.908;2024-02-21T11:18:35;44.41;33.80;60.88;;
68599;Laerm;18038;50.166;18.908;2024-02-21T11:21:45;45.12;34.20;57.27;;
68599;Laerm;18038;50.166;18.908;2024-02-21T11:24:54;47.31;33.95;66.08;;
68599;Laerm;18038;50.166;18.908;2024-02-21T11:28:04;42.58;34.49;54.00;;
68599;Laerm;18038;50.166;18.908;2024-02-21T11:31:14;42.68;33.70;55.66;;
68599;Laerm;18038;50.166;18.908;2024-02-21T11:34:22;43.20;35.33;55.79;;
68599;Laerm;18038;50.166;18.908;2024-02-21T11:37:35;45.96;34.94;66.08;;
68599;Laerm;18038;50.166;18.908;2024-02-21T11:40:46;45.09;35.24;59.77;;
68599;Laerm;18038;50.166;18.908;2024-02-21T11:43:54;41.13;34.61;53.68;;
68599;Laerm;18038;50.166;18.908;2024-02-21T11:47:02;41.80;34.80;52.99;;
68599;Laerm;18038;50.166;18.908;2024-02-21T11:50:11;40.55;34.30;50.57;;
68599;Laerm;18038;50.166;18.908;2024-02-21T11:53:24;42.81;34.40;59.29;;
68599;Laerm;18038;50.166;18.908;2024-02-21T11:56:39;44.24;34.88;60.17;;
68599;Laerm;18038;50.166;18.908;2024-02-21T11:59:47;43.30;35.09;61.57;;
68599;Laerm;18038;50.166;18.908;2024-02-21T12:02:59;43.21;35.09;56.07;;
68599;Laerm;18038;50.166;18.908;2024-02-21T12:06:07;47.02;34.96;60.54;;
68599;Laerm;18038;50.166;18.908;2024-02-21T12:09:19;41.78;35.11;54.01;;
68599;Laerm;18038;50.166;18.908;2024-02-21T12:12:26;41.30;35.32;50.63;;
68599;Laerm;18038;50.166;18.908;2024-02-21T12:15:35;42.39;35.27;57.39;;
68599;Laerm;18038;50.166;18.908;2024-02-21T12:18:42;43.05;35.08;58.75;;
68599;Laerm;18038;50.166;18.908;2024-02-21T12:21:50;39.90;34.73;50.41;;
68599;Laerm;18038;50.166;18.908;2024-02-21T12:25:03;41.17;34.95;50.87;;
68599;Laerm;18038;50.166;18.908;2024-02-21T12:28:12;45.90;36.11;60.47;;
68599;Laerm;18038;50.166;18.908;2024-02-21T12:31:21;42.56;36.49;51.54;;
68599;Laerm;18038;50.166;18.908;2024-02-21T12:34:30;45.10;35.99;60.62;;
68599;Laerm;18038;50.166;18.908;2024-02-21T12:37:55;46.81;36.09;60.94;;
68599;Laerm;18038;50.166;18.908;2024-02-21T12:41:07;43.46;35.80;53.93;;
68599;Laerm;18038;50.166;18.908;2024-02-21T12:44:15;42.24;36.11;51.03;;
68599;Laerm;18038;50.166;18.908;2024-02-21T12:47:23;43.50;35.43;54.23;;
68599;Laerm;18038;50.166;18.908;2024-02-21T12:50:31;48.95;35.92;63.89;;
68599;Laerm;18038;50.166;18.908;2024-02-21T12:53:39;43.88;34.90;58.21;;
68599;Laerm;18038;50.166;18.908;2024-02-21T12:56:49;42.86;35.04;52.04;;
68599;Laerm;18038;50.166;18.908;2024-02-21T12:59:57;42.35;34.30;52.02;;
68599;Laerm;18038;50.166;18.908;2024-02-21T13:03:04;43.35;34.52;54.12;;
68599;Laerm;18038;50.166;18.908;2024-02-21T13:06:12;41.90;34.90;51.09;;
68599;Laerm;18038;50.166;18.908;2024-02-21T13:09:20;42.77;35.54;53.28;;
68599;Laerm;18038;50.166;18.908;2024-02-21T13:12:30;42.45;34.74;49.25;;
68599;Laerm;18038;50.166;18.908;2024-02-21T13:15:38;42.31;35.15;49.27;;
68599;Laerm;18038;50.166;18.908;2024-02-21T13:18:47;42.95;35.37;57.24;;
68599;Laerm;18038;50.166;18.908;2024-02-21T13:21:55;44.75;35.69;59.51;;
68599;Laerm;18038;50.166;18.908;2024-02-21T13:25:05;44.02;36.13;60.30;;
68599;Laerm;18038;50.166;18.908;2024-02-21T13:28:15;44.13;34.75;58.50;;
68599;Laerm;18038;50.166;18.908;2024-02-21T13:31:23;41.16;34.00;51.24;;
68599;Laerm;18038;50.166;18.908;2024-02-21T13:34:31;42.53;35.19;52.38;;
68599;Laerm;18038;50.166;18.908;2024-02-21T13:37:39;42.69;34.25;57.34;;
68599;Laerm;18038;50.166;18.908;2024-02-21T13:40:47;43.16;34.55;57.97;;
68599;Laerm;18038;50.166;18.908;2024-02-21T13:43:58;42.31;35.05;52.04;;
68599;Laerm;18038;50.166;18.908;2024-02-21T13:47:05;44.00;36.76;56.46;;
68599;Laerm;18038;50.166;18.908;2024-02-21T13:50:14;42.41;34.31;50.18;;
68599;Laerm;18038;50.166;18.908;2024-02-21T13:53:31;41.70;34.48;47.39;;
68599;Laerm;18038;50.166;18.908;2024-02-21T13:56:39;43.46;35.17;54.44;;
68599;Laerm;18038;50.166;18.908;2024-02-21T13:59:49;44.12;34.74;57.19;;
68599;Laerm;18038;50.166;18.908;2024-02-21T14:02:57;41.25;34.69;48.08;;
68599;Laerm;18038;50.166;18.908;2024-02-21T14:06:05;44.50;36.15;59.84;;
68599;Laerm;18038;50.166;18.908;2024-02-21T14:09:13;43.89;34.17;59.46;;
68599;Laerm;18038;50.166;18.908;2024-02-21T14:12:20;43.12;35.12;56.35;;
68599;Laerm;18038;50.166;18.908;2024-02-21T14:15:31;43.69;35.62;56.11;;
68599;Laerm;18038;50.166;18.908;2024-02-21T14:18:39;42.79;34.99;55.62;;
68599;Laerm;18038;50.166;18.908;2024-02-21T14:21:48;45.82;35.39;60.97;;
68599;Laerm;18038;50.166;18.908;2024-02-21T14:24:57;46.71;34.81;61.95;;
68599;Laerm;18038;50.166;18.908;2024-02-21T14:28:05;44.52;35.52;60.89;;
68599;Laerm;18038;50.166;18.908;2024-02-21T14:31:16;46.52;35.43;62.64;;
68599;Laerm;18038;50.166;18.908;2024-02-21T14:34:24;47.28;34.80;63.45;;
68599;Laerm;18038;50.166;18.908;2024-02-21T14:37:31;45.18;34.21;64.46;;
68599;Laerm;18038;50.166;18.908;2024-02-21T14:40:40;43.79;34.30;59.70;;
68599;Laerm;18038;50.166;18.908;2024-02-21T14:43:47;47.86;35.17;63.03;;
68599;Laerm;18038;50.166;18.908;2024-02-21T14:46:57;46.67;35.79;60.92;;
68599;Laerm;18038;50.166;18.908;2024-02-21T14:50:06;48.39;36.33;63.77;;
68599;Laerm;18038;50.166;18.908;2024-02-21T14:53:16;44.69;34.69;59.36;;
68599;Laerm;18038;50.166;18.908;2024-02-21T14:56:24;49.65;34.26;65.24;;
68599;Laerm;18038;50.166;18.908;2024-02-21T14:59:32;43.50;33.88;58.92;;
68599;Laerm;18038;50.166;18.908;2024-02-21T15:02:42;50.22;34.52;65.68;;
68599;Laerm;18038;50.166;18.908;2024-02-21T15:05:50;47.46;34.81;61.26;;
68599;Laerm;18038;50.166;18.908;2024-02-21T15:08:58;46.03;35.39;66.64;;
68599;Laerm;18038;50.166;18.908;2024-02-21T15:12:07;44.95;35.28;58.62;;
68599;Laerm;18038;50.166;18.908;2024-02-21T15:15:14;45.95;34.28;66.44;;
68599;Laerm;18038;50.166;18.908;2024-02-21T15:18:25;47.01;35.74;65.87;;
68599;Laerm;18038;50.166;18.908;2024-02-21T15:21:32;42.86;34.57;52.40;;
68599;Laerm;18038;50.166;18.908;2024-02-21T15:24:41;42.43;34.01;54.07;;
68599;Laerm;18038;50.166;18.908;2024-02-21T15:27:51;46.19;34.08;64.41;;
68599;Laerm;18038;50.166;18.908;2024-02-21T15:30:59;43.94;34.63;61.28;;
68599;Laerm;18038;50.166;18.908;2024-02-21T15:34:10;45.41;35.62;58.26;;
68599;Laerm;18038;50.166;18.908;2024-02-21T15:37:18;45.87;34.85;63.81;;
68599;Laerm;18038;50.166;18.908;2024-02-21T15:40:26;44.80;33.97;56.93;;
68599;Laerm;18038;50.166;18.908;2024-02-21T15:43:34;46.92;34.52;63.47;;
68599;Laerm;18038;50.166;18.908;2024-02-21T15:46:42;45.56;33.77;63.67;;
68599;Laerm;18038;50.166;18.908;2024-02-21T15:49:53;43.49;34.46;54.75;;
68599;Laerm;18038;50.166;18.908;2024-02-21T15:53:00;44.50;35.65;58.89;;
68599;Laerm;18038;50.166;18.908;2024-02-21T15:56:08;44.22;34.46;56.90;;
68599;Laerm;18038;50.166;18.908;2024-02-21T15:59:17;43.88;34.84;57.30;;
68599;Laerm;18038;50.166;18.908;2024-02-21T16:02:25;42.93;34.61;57.35;;
68599;Laerm;18038;50.166;18.908;2024-02-21T16:05:35;43.10;35.05;56.10;;
68599;Laerm;18038;50.166;18.908;2024-02-21T16:08:46;43.63;35.31;56.72;;
68599;Laerm;18038;50.166;18.908;2024-02-21T16:11:54;44.26;35.81;58.80;;
68599;Laerm;18038;50.166;18.908;2024-02-21T16:15:04;43.91;37.20;55.44;;
68599;Laerm;18038;50.166;18.908;2024-02-21T16:18:11;43.26;36.26;56.41;;
68599;Laerm;18038;50.166;18.908;2024-02-21T16:21:23;42.64;34.79;59.81;;
68599;Laerm;18038;50.166;18.908;2024-02-21T16:24:31;43.83;36.14;55.19;;
68599;Laerm;18038;50.166;18.908;2024-02-21T16:27:39;42.74;34.55;55.62;;
68599;Laerm;18038;50.166;18.908;2024-02-21T16:30:47;45.38;33.82;62.08;;
68599;Laerm;18038;50.166;18.908;2024-02-21T16:33:55;45.73;34.70;62.96;;
68599;Laerm;18038;50.166;18.908;2024-02-21T16:37:06;43.42;33.95;59.17;;
68599;Laerm;18038;50.166;18.908;2024-02-21T16:40:14;44.58;34.41;59.35;;
68599;Laerm;18038;50.166;18.908;2024-02-21T16:43:22;41.05;34.69;50.58;;
68599;Laerm;18038;50.166;18.908;2024-02-21T16:46:31;41.19;33.85;52.96;;
68599;Laerm;18038;50.166;18.908;2024-02-21T16:49:38;40.12;33.24;51.50;;
68599;Laerm;18038;50.166;18.908;2024-02-21T16:52:49;39.69;33.81;47.55;;
68599;Laerm;18038;50.166;18.908;2024-02-21T16:55:57;42.70;33.76;54.36;;
68599;Laerm;18038;50.166;18.908;2024-02-21T16:59:07;40.81;34.54;52.64;;
68599;Laerm;18038;50.166;18.908;2024-02-21T17:02:14;42.32;33.73;54.48;;
68599;Laerm;18038;50.166;18.908;2024-02-21T17:05:23;44.54;33.92;59.66;;
68599;Laerm;18038;50.166;18.908;2024-02-21T17:08:33;45.15;34.25;60.34;;
68599;Laerm;18038;50.166;18.908;2024-02-21T17:11:41;43.63;33.92;57.28;;
68599;Laerm;18038;50.166;18.908;2024-02-21T17:14:49;45.32;34.57;60.69;;
68599;Laerm;18038;50.166;18.908;2024-02-21T17:17:57;41.88;33.99;54.47;;
68599;Laerm;18038;50.166;18.908;2024-02-21T17:21:06;42.40;34.77;53.45;;
68599;Laerm;18038;50.166;18.908;2024-02-21T17:24:20;41.36;33.95;52.26;;